Terminal Aerodrome Forecast
Issued by NWS Milwaukee/Sullivan, WI

Home | Current Version | Previous Version | Text Only | Print | Product List | Glossary On
Versions: 1 2 3 4 5 6 7 8 9 10 11 12 13 14 15 16 17 18 19 20 21 22 23 24 25 26 27 28 29 30 31 32 33 34 35 36 37 38 39
000
FTUS43 KMKX 301740
TAFMSN
TAF
KMSN 301740Z 3018/3118 29004KT P6SM VCSH SCT015 BKN030 BKN110
     FM301900 30005KT P6SM VCSH BKN035
     FM302100 31005KT P6SM BKN050
     FM310800 01006KT P6SM BKN080=

USA.gov is the U.S. government's official web portal to all federal, state and local government web resources and services.